Time;durP1;ratioP1;P1;durP2;ratioP2;P2;SDS_P1;SDS_P2;PMS_P1;PMS_P2;Temp;Humidity;BMP_temperature;BMP_pressure;BME280_temperature;BME280_humidity;BME280_pressure;Samples;Min_cycle;Max_cycle;Signal;HPM_P1;HPM_P2
2022/08/11 00:01:11;;;;;;;4.63;1.70;;;;;26.70;102206.00;;;;5048114;28;20669;-76
2022/08/11 00:03:44;;;;;;;1.92;1.38;;;;;26.60;102200.00;;;;5039978;28;20563;-76
2022/08/11 00:06:13;;;;;;;2.08;1.02;;;;;26.70;102199.00;;;;5048400;28;20654;-76
2022/08/11 00:08:42;;;;;;;1.63;1.30;;;;;26.70;102201.00;;;;5048873;28;20208;-76
2022/08/11 00:11:12;;;;;;;2.78;1.20;;;;;26.60;102192.00;;;;5047409;28;20303;-76
2022/08/11 00:13:44;;;;;;;3.03;1.33;;;;;26.60;102198.00;;;;5048131;28;20192;-76
2022/08/11 00:16:15;;;;;;;2.88;1.15;;;;;26.60;102200.00;;;;5048161;28;20196;-77
2022/08/11 00:18:44;;;;;;;1.30;1.15;;;;;26.60;102195.00;;;;5045858;28;20207;-77
2022/08/11 00:21:14;;;;;;;1.63;1.30;;;;;26.60;102195.00;;;;5044883;28;20204;-76
2022/08/11 00:23:44;;;;;;;1.98;1.38;;;;;26.60;102205.00;;;;5048782;28;20207;-77
2022/08/11 00:26:12;;;;;;;3.25;1.25;;;;;26.60;102201.00;;;;5047894;28;20577;-76
2022/08/11 00:28:40;;;;;;;2.17;1.45;;;;;26.60;102202.00;;;;5047910;28;20195;-76
2022/08/11 00:31:10;;;;;;;1.67;1.42;;;;;26.50;102196.00;;;;5046943;28;20207;-76
2022/08/11 00:33:40;;;;;;;1.30;1.20;;;;;26.50;102202.00;;;;5047649;28;20199;-76
2022/08/11 00:36:09;;;;;;;5.18;1.63;;;;;26.50;102201.00;;;;5045539;28;20203;-76
2022/08/11 00:38:40;;;;;;;2.33;1.25;;;;;26.40;102204.00;;;;5047399;28;20195;-76
2022/08/11 00:41:28;;;;;;;6.35;1.65;;;;;26.30;102202.00;;;;5047158;28;20662;-76
2022/08/11 00:44:21;;;;;;;3.15;1.25;;;;;26.30;102202.00;;;;5048263;28;20203;-76
2022/08/11 00:46:59;;;;;;;2.47;1.60;;;;;26.30;102211.00;;;;5048156;28;20206;-76
2022/08/11 00:49:38;;;;;;;4.43;1.45;;;;;26.30;102208.00;;;;5046915;28;20223;-77
2022/08/11 00:52:24;;;;;;;1.60;1.48;;;;;26.20;102207.00;;;;5047164;28;20204;-76
2022/08/11 00:55:40;;;;;;;2.65;1.48;;;;;26.10;102209.00;;;;5047623;28;20904;-76
2022/08/11 00:58:47;;;;;;;2.33;1.38;;;;;26.10;102200.00;;;;5047656;28;20232;-76
2022/08/11 01:01:26;;;;;;;1.48;1.23;;;;;26.10;102206.00;;;;5047580;28;20200;-76
2022/08/11 01:04:26;;;;;;;3.25;1.45;;;;;26.00;102208.00;;;;5047504;28;20207;-76
2022/08/11 01:07:27;;;;;;;1.65;1.13;;;;;26.00;102207.00;;;;5042640;28;20214;-77
2022/08/11 01:10:13;;;;;;;2.10;1.65;;;;;26.00;102203.00;;;;5042477;28;20220;-77
2022/08/11 01:12:52;;;;;;;1.48;1.00;;;;;26.00;102200.00;;;;5039364;28;20196;-77
2022/08/11 01:15:59;;;;;;;1.35;1.25;;;;;25.90;102196.00;;;;5047857;28;20203;-77
2022/08/11 01:18:53;;;;;;;2.00;1.80;;;;;25.90;102198.00;;;;5044999;28;20273;-77
2022/08/11 01:21:55;;;;;;;1.85;1.50;;;;;25.90;102197.00;;;;5046543;28;20203;-76
2022/08/11 01:24:59;;;;;;;2.72;1.60;;;;;25.80;102196.00;;;;5047215;28;20206;-76
2022/08/11 01:28:05;;;;;;;3.03;1.35;;;;;25.80;102192.00;;;;5038191;28;20204;-77
2022/08/11 01:30:57;;;;;;;1.92;1.23;;;;;25.80;102191.00;;;;5036986;28;20226;-77
2022/08/11 01:34:10;;;;;;;2.03;1.63;;;;;25.70;102190.00;;;;5047340;28;20207;-77
2022/08/11 01:37:30;;;;;;;3.78;1.67;;;;;25.70;102191.00;;;;5046983;28;20210;-77
2022/08/11 01:40:32;;;;;;;2.05;1.45;;;;;25.70;102186.00;;;;5043770;28;20195;-77
2022/08/11 01:46:19;;;;;;;1.92;1.73;;;;;25.80;102189.00;;;;5030992;28;20199;-77
2022/08/11 01:49:03;;;;;;;2.10;1.63;;;;;25.70;102182.00;;;;5046567;28;20204;-77
2022/08/11 01:51:45;;;;;;;4.00;1.80;;;;;25.70;102185.00;;;;5047136;28;20235;-77
2022/08/11 01:54:24;;;;;;;1.85;1.75;;;;;25.70;102191.00;;;;5046279;28;20565;-76
2022/08/11 01:57:05;;;;;;;1.55;1.40;;;;;25.70;102186.00;;;;5047180;28;20196;-76
2022/08/11 01:59:38;;;;;;;2.47;1.65;;;;;25.70;102190.00;;;;5047181;28;20210;-76
2022/08/11 02:05:20;;;;;;;2.15;1.60;;;;;25.70;102185.00;;;;5046689;28;20595;-77
2022/08/11 02:07:57;;;;;;;1.90;1.70;;;;;25.70;102183.00;;;;5041346;28;20233;-76
2022/08/11 02:13:32;;;;;;;2.88;1.63;;;;;25.70;102183.00;;;;5020974;28;20301;-77
2022/08/11 02:16:13;;;;;;;2.17;1.40;;;;;25.60;102186.00;;;;5050186;28;20203;-76
2022/08/11 02:24:49;;;;;;;2.47;1.42;;;;;25.60;102179.00;;;;4968905;28;20233;-77
2022/08/11 02:27:23;;;;;;;2.97;1.85;;;;;25.60;102178.00;;;;5032202;28;20219;-77
2022/08/11 02:30:06;;;;;;;4.07;2.00;;;;;25.50;102172.00;;;;5049961;28;20234;-77
2022/08/11 02:35:28;;;;;;;2.13;1.65;;;;;25.50;102177.00;;;;5044581;28;20207;-77
2022/08/11 02:38:12;;;;;;;3.42;1.63;;;;;25.50;102179.00;;;;5049512;28;20199;-77
2022/08/11 02:40:51;;;;;;;3.58;1.80;;;;;25.50;102180.00;;;;5049696;28;20200;-77
2022/08/11 02:43:28;;;;;;;2.28;1.80;;;;;25.50;102176.00;;;;5048599;28;20207;-77
2022/08/11 02:46:06;;;;;;;2.47;1.90;;;;;25.50;102173.00;;;;5050189;28;20196;-77
2022/08/11 02:51:47;;;;;;;2.20;1.73;;;;;25.40;102180.00;;;;5019852;28;20345;-77
2022/08/11 02:54:23;;;;;;;1.52;1.38;;;;;25.40;102168.00;;;;5045144;28;20210;-77
2022/08/11 02:56:58;;;;;;;3.05;1.83;;;;;25.40;102168.00;;;;5050271;28;20207;-77
2022/08/11 02:59:52;;;;;;;3.78;1.98;;;;;25.30;102166.00;;;;5049615;28;20200;-77
2022/08/11 03:02:41;;;;;;;2.33;2.00;;;;;25.30;102174.00;;;;5045723;28;20292;-77
2022/08/11 03:05:33;;;;;;;2.63;1.83;;;;;25.20;102173.00;;;;5049730;28;20296;-76
2022/08/11 03:08:25;;;;;;;4.60;1.70;;;;;25.20;102167.00;;;;5044007;28;20211;-77
2022/08/11 03:16:54;;;;;;;2.00;1.60;;;;;25.20;102163.00;;;;5048732;28;20191;-76
2022/08/11 03:19:30;;;;;;;2.60;2.35;;;;;25.20;102170.00;;;;5049363;28;20206;-77
2022/08/11 03:22:06;;;;;;;3.63;1.90;;;;;25.20;102166.00;;;;5049067;28;20204;-76
2022/08/11 03:24:43;;;;;;;2.47;1.80;;;;;25.20;102162.00;;;;5049076;28;20203;-77
2022/08/11 03:27:22;;;;;;;3.50;1.90;;;;;25.20;102159.00;;;;5045975;28;20217;-76
2022/08/11 03:30:07;;;;;;;2.33;2.10;;;;;25.10;102162.00;;;;5049267;28;20227;-77
2022/08/11 03:34:00;;;;;;;3.17;2.10;;;;;25.10;102162.00;;;;5049761;28;20192;-77
2022/08/11 03:35:36;;;;;;;2.42;1.63;;;;;25.10;102171.00;;;;5049129;28;20192;-77
2022/08/11 03:38:10;;;;;;;2.05;1.85;;;;;25.10;102168.00;;;;5048305;28;20192;-77
2022/08/11 03:44:07;;;;;;;2.92;1.83;;;;;25.00;102159.00;;;;5038680;28;20806;-77
2022/08/11 03:46:51;;;;;;;2.35;1.67;;;;;25.00;102168.00;;;;5036059;28;20196;-77
2022/08/11 03:49:31;;;;;;;2.20;2.00;;;;;25.00;102163.00;;;;5048344;28;20207;-77
2022/08/11 03:52:12;;;;;;;2.72;1.95;;;;;25.00;102166.00;;;;5047869;28;20203;-76
2022/08/11 03:54:47;;;;;;;4.20;1.92;;;;;25.00;102158.00;;;;5048764;28;20207;-77
2022/08/11 03:57:48;;;;;;;3.80;1.73;;;;;24.90;102153.00;;;;5048767;28;20229;-77
2022/08/11 04:00:35;;;;;;;2.05;1.85;;;;;25.00;102157.00;;;;5048058;28;20211;-77
2022/08/11 04:03:45;;;;;;;1.83;1.63;;;;;24.80;102161.00;;;;5039208;28;20214;-77
2022/08/11 04:06:50;;;;;;;2.63;1.80;;;;;24.80;102153.00;;;;5048496;28;20567;-77
2022/08/11 04:09:53;;;;;;;2.40;1.77;;;;;24.80;102160.00;;;;5048088;28;20195;-77
2022/08/11 04:13:09;;;;;;;2.53;1.83;;;;;24.80;102159.00;;;;5033288;28;20214;-77
2022/08/11 04:16:23;;;;;;;2.20;2.00;;;;;24.80;102155.00;;;;4975950;28;20206;-77
2022/08/11 04:19:27;;;;;;;3.25;2.05;;;;;24.80;102149.00;;;;4928820;29;20211;-77
2022/08/11 04:22:30;;;;;;;4.30;2.25;;;;;24.80;102145.00;;;;5046009;28;20588;-77
2022/08/11 04:25:56;;;;;;;2.58;2.17;;;;;24.80;102146.00;;;;5025377;28;20912;-77
2022/08/11 04:28:49;;;;;;;3.15;2.05;;;;;24.70;102143.00;;;;5048469;28;20192;-77
2022/08/11 04:31:36;;;;;;;2.63;2.08;;;;;24.80;102146.00;;;;5047369;28;20293;-77
2022/08/11 04:34:50;;;;;;;3.75;1.80;;;;;24.70;102150.00;;;;5042491;28;20215;-77
2022/08/11 04:37:43;;;;;;;3.58;1.92;;;;;24.80;102142.00;;;;5039576;28;20199;-77
2022/08/11 04:40:39;;;;;;;5.15;2.28;;;;;24.80;102137.00;;;;5046559;28;20571;-77
2022/08/11 04:44:01;;;;;;;2.47;2.08;;;;;24.80;102141.00;;;;5048044;28;20191;-77
2022/08/11 04:47:07;;;;;;;2.67;2.25;;;;;24.80;102142.00;;;;5047649;28;20195;-77
2022/08/11 05:03:02;;;;;;;2.95;2.17;;;;;24.80;102144.00;;;;4949140;28;20217;-78
2022/08/11 05:05:45;;;;;;;3.47;2.10;;;;;24.90;102141.00;;;;5046120;28;20230;-78
2022/08/11 05:08:59;;;;;;;3.20;1.98;;;;;24.80;102141.00;;;;5040841;28;20290;-78
2022/08/11 05:11:43;;;;;;;1.98;1.80;;;;;24.90;102141.00;;;;5043971;28;20226;-77
2022/08/11 05:34:55;;;;;;;3.20;2.00;;;;;25.10;102145.00;;;;5050282;28;20202;-77
2022/08/11 05:37:31;;;;;;;3.58;2.17;;;;;25.20;102152.00;;;;5048229;28;20200;-77
2022/08/11 05:56:55;;;;;;;6.10;2.08;;;;;25.60;102164.00;;;;5053709;28;20210;-76
2022/08/11 05:59:25;;;;;;;2.83;2.50;;;;;25.70;102171.00;;;;5044819;28;20200;-77
2022/08/11 06:02:00;;;;;;;2.20;2.00;;;;;25.80;102168.00;;;;5053179;28;20287;-77
2022/08/11 06:04:29;;;;;;;2.65;2.17;;;;;25.90;102166.00;;;;5053201;28;20203;-76
2022/08/11 06:06:59;;;;;;;2.17;1.98;;;;;25.90;102160.00;;;;5038024;28;20201;-76
2022/08/11 06:09:32;;;;;;;4.55;2.22;;;;;26.00;102162.00;;;;5052567;28;20721;-76
2022/08/11 06:12:03;;;;;;;3.47;2.35;;;;;26.10;102165.00;;;;5043716;28;20249;-76
2022/08/11 06:14:30;;;;;;;2.70;2.20;;;;;26.10;102166.00;;;;5052381;28;20207;-76
2022/08/11 06:17:02;;;;;;;3.45;2.22;;;;;26.20;102162.00;;;;5040824;28;20215;-76
2022/08/11 06:19:35;;;;;;;3.60;2.08;;;;;26.30;102169.00;;;;5031782;28;20210;-76
2022/08/11 06:22:04;;;;;;;4.82;2.35;;;;;26.30;102176.00;;;;5043497;28;20192;-76
2022/08/11 06:24:32;;;;;;;3.05;2.08;;;;;26.40;102174.00;;;;5051153;28;20196;-76
2022/08/11 06:27:01;;;;;;;1.77;1.63;;;;;26.50;102175.00;;;;5051341;28;20207;-76
2022/08/11 06:29:30;;;;;;;3.53;2.28;;;;;26.50;102175.00;;;;5050949;28;20196;-76
2022/08/11 06:32:01;;;;;;;3.53;1.83;;;;;26.60;102173.00;;;;5039843;28;20219;-76
2022/08/11 06:34:39;;;;;;;3.40;2.30;;;;;26.60;102167.00;;;;5032945;28;20212;-77
2022/08/11 06:37:20;;;;;;;4.57;2.20;;;;;26.60;102164.00;;;;5040335;28;20208;-76
2022/08/11 06:39:58;;;;;;;3.33;2.13;;;;;26.70;102168.00;;;;5049764;28;20195;-76
2022/08/11 06:42:50;;;;;;;2.15;1.77;;;;;26.80;102169.00;;;;5050007;28;20256;-76
2022/08/11 06:45:26;;;;;;;3.72;2.20;;;;;26.80;102167.00;;;;5049771;28;20207;-76
2022/08/11 06:47:55;;;;;;;2.50;2.20;;;;;26.90;102171.00;;;;5049515;28;20203;-76
2022/08/11 06:53:11;;;;;;;4.32;1.75;;;;;27.10;102171.00;;;;5048794;28;20236;-77
2022/08/11 07:01:22;;;;;;;2.40;2.20;;;;;27.40;102168.00;;;;5049388;28;20265;-77
2022/08/11 07:03:57;;;;;;;5.18;2.33;;;;;27.40;102173.00;;;;5050495;28;20199;-78
2022/08/11 07:06:39;;;;;;;2.85;2.22;;;;;27.50;102175.00;;;;5032636;28;20219;-77
2022/08/11 07:15:43;;;;;;;1.38;1.27;;;;;27.80;102175.00;;;;5048956;28;20238;-77
2022/08/11 07:29:37;;;;;;;3.83;1.77;;;;;28.40;102185.00;;;;5048933;28;20631;-77
2022/08/11 07:32:14;;;;;;;3.47;2.08;;;;;28.40;102186.00;;;;5049204;28;20306;-77
2022/08/11 07:34:48;;;;;;;4.22;2.53;;;;;28.60;102187.00;;;;5048656;28;20260;-77
2022/08/11 07:37:19;;;;;;;2.17;1.98;;;;;28.70;102186.00;;;;5048533;28;20203;-77
2022/08/11 07:39:48;;;;;;;2.47;2.22;;;;;28.80;102182.00;;;;5049305;28;20634;-77
2022/08/11 07:42:20;;;;;;;2.47;1.75;;;;;28.90;102178.00;;;;5034917;28;20259;-77
2022/08/11 07:53:06;;;;;;;3.92;1.83;;;;;29.40;102173.00;;;;5048555;28;20222;-77
2022/08/11 07:55:34;;;;;;;4.63;2.10;;;;;29.50;102175.00;;;;5047630;28;20196;-77
2022/08/11 08:20:13;;;;;;;3.85;1.70;;;;;30.80;102176.00;;;;5048819;28;20199;-77
2022/08/11 08:22:41;;;;;;;3.45;2.20;;;;;31.00;102176.00;;;;5047542;28;20192;-78
2022/08/11 08:25:11;;;;;;;1.95;1.58;;;;;31.10;102171.00;;;;5048104;28;20191;-78
2022/08/11 08:27:39;;;;;;;2.03;1.67;;;;;31.20;102177.00;;;;5047982;28;20498;-77
2022/08/11 08:32:56;;;;;;;1.92;1.65;;;;;31.60;102177.00;;;;5041153;28;20238;-77
2022/08/11 08:35:24;;;;;;;1.67;1.40;;;;;31.70;102187.00;;;;5047443;28;20274;-78
2022/08/11 08:37:51;;;;;;;5.50;1.65;;;;;31.80;102180.00;;;;5047619;28;20205;-77
2022/08/11 08:40:21;;;;;;;3.03;1.67;;;;;32.00;102177.00;;;;5047517;28;20207;-77
2022/08/11 08:42:56;;;;;;;1.40;1.30;;;;;32.10;102179.00;;;;5048992;28;20204;-77
2022/08/11 08:45:26;;;;;;;2.50;1.92;;;;;32.30;102174.00;;;;5047275;28;20196;-78
2022/08/11 08:47:59;;;;;;;1.67;1.58;;;;;32.40;102174.00;;;;5048294;28;20246;-78
2022/08/11 08:53:12;;;;;;;4.15;1.98;;;;;32.80;102163.00;;;;5043860;28;20287;-78
2022/08/11 08:55:42;;;;;;;2.80;1.80;;;;;32.90;102169.00;;;;5047804;28;20199;-78
2022/08/11 08:58:10;;;;;;;1.55;1.45;;;;;33.10;102168.00;;;;5047406;28;20226;-77
2022/08/11 09:00:42;;;;;;;1.80;1.63;;;;;33.20;102167.00;;;;5047593;28;20205;-77
2022/08/11 09:03:10;;;;;;;3.80;1.50;;;;;33.40;102169.00;;;;5048318;28;20582;-77
2022/08/11 09:05:38;;;;;;;1.90;1.42;;;;;33.50;102171.00;;;;5046139;28;20211;-77
2022/08/11 09:08:06;;;;;;;4.47;1.85;;;;;33.60;102172.00;;;;5036793;28;20683;-77
2022/08/11 09:10:35;;;;;;;3.42;1.60;;;;;33.70;102170.00;;;;5047145;28;20260;-77
2022/08/11 09:13:07;;;;;;;2.72;1.80;;;;;33.80;102172.00;;;;5039361;28;20242;-78
2022/08/11 09:15:36;;;;;;;3.55;2.10;;;;;34.00;102177.00;;;;5047803;28;20274;-77
2022/08/11 09:18:08;;;;;;;2.08;1.88;;;;;34.10;102171.00;;;;5047475;28;20774;-78
2022/08/11 09:20:37;;;;;;;2.65;1.63;;;;;34.20;102164.00;;;;5048420;28;20195;-78
2022/08/11 09:28:42;;;;;;;2.20;1.98;;;;;34.50;102174.00;;;;5052336;28;20206;-78
2022/08/11 09:31:11;;;;;;;2.50;1.70;;;;;34.60;102171.00;;;;5052066;28;20203;-77
2022/08/11 09:33:40;;;;;;;2.08;1.70;;;;;34.70;102162.00;;;;5051858;28;20199;-77
2022/08/11 09:41:39;;;;;;;2.10;1.95;;;;;35.00;102157.00;;;;5038466;28;20330;-77
2022/08/11 09:46:59;;;;;;;2.22;1.60;;;;;35.20;102149.00;;;;5051151;28;21071;-77
2022/08/11 09:49:27;;;;;;;2.58;2.08;;;;;35.30;102146.00;;;;5051477;28;20719;-77
2022/08/11 09:51:55;;;;;;;1.95;1.75;;;;;35.40;102143.00;;;;5051453;28;20223;-79
2022/08/11 09:54:25;;;;;;;1.85;1.65;;;;;35.50;102142.00;;;;5051376;28;20202;-79
2022/08/11 09:59:40;;;;;;;1.80;1.58;;;;;35.70;102145.00;;;;5029912;28;20194;-78
2022/08/11 10:02:10;;;;;;;3.28;1.42;;;;;35.80;102148.00;;;;5032666;28;20247;-78
2022/08/11 10:04:44;;;;;;;2.53;1.77;;;;;35.90;102151.00;;;;5031430;28;20207;-78
2022/08/11 10:07:13;;;;;;;2.63;1.88;;;;;36.00;102160.00;;;;5031414;28;20203;-78
2022/08/11 10:09:44;;;;;;;3.50;2.17;;;;;36.00;102157.00;;;;5031393;28;20658;-77
2022/08/11 10:12:16;;;;;;;3.35;1.85;;;;;36.20;102150.00;;;;5031229;28;20227;-77
2022/08/11 10:18:40;;;;;;;1.73;1.60;;;;;36.30;102149.00;;;;5029731;28;20249;-78
2022/08/11 10:20:33;;;;;;;3.33;1.92;;;;;36.40;102138.00;;;;5030426;28;20275;-77
2022/08/11 10:28:32;;;;;;;1.88;1.77;;;;;36.60;102134.00;;;;5031628;28;20211;-78
2022/08/11 10:33:59;;;;;;;3.67;1.50;;;;;36.70;102130.00;;;;5030134;28;20262;-77
2022/08/11 10:36:28;;;;;;;2.00;1.45;;;;;36.80;102129.00;;;;5029600;28;21061;-78
2022/08/11 10:38:57;;;;;;;1.80;1.70;;;;;36.90;102132.00;;;;5031852;28;20210;-77
2022/08/11 10:44:12;;;;;;;2.28;2.08;;;;;37.00;102118.00;;;;5031676;28;20884;-78
2022/08/11 10:49:28;;;;;;;1.58;1.48;;;;;37.00;102125.00;;;;5020533;28;20861;-76
2022/08/11 11:00:15;;;;;;;2.03;1.83;;;;;37.20;102115.00;;;;5050634;28;20238;-77
2022/08/11 11:02:46;;;;;;;2.33;1.85;;;;;37.20;102119.00;;;;5050444;28;20191;-76
2022/08/11 11:05:19;;;;;;;2.22;1.60;;;;;37.20;102108.00;;;;5043716;28;20220;-76
2022/08/11 11:07:54;;;;;;;2.80;1.50;;;;;37.20;102102.00;;;;5039100;28;20207;-77
2022/08/11 11:10:22;;;;;;;1.60;1.50;;;;;37.30;102102.00;;;;5048442;28;20525;-78
2022/08/11 11:18:34;;;;;;;1.52;1.25;;;;;37.40;102097.00;;;;5018232;28;20225;-78
2022/08/11 11:21:06;;;;;;;2.38;1.13;;;;;37.40;102097.00;;;;5049525;28;20207;-78
2022/08/11 11:23:38;;;;;;;1.70;1.52;;;;;37.50;102098.00;;;;5032250;28;20583;-78
2022/08/11 11:26:31;;;;;;;4.18;1.30;;;;;37.40;102093.00;;;;5048616;28;20198;-78
2022/08/11 11:29:21;;;;;;;1.70;1.40;;;;;37.40;102104.00;;;;5049560;28;20578;-78
2022/08/11 11:31:59;;;;;;;1.45;1.35;;;;;37.40;102100.00;;;;5036466;28;20310;-78
2022/08/11 11:34:52;;;;;;;1.27;1.17;;;;;37.40;102094.00;;;;5050560;28;20211;-78
2022/08/11 11:37:19;;;;;;;1.15;1.05;;;;;37.50;102091.00;;;;5050042;28;20206;-78
2022/08/11 11:39:47;;;;;;;2.72;1.23;;;;;37.60;102091.00;;;;5043970;28;20195;-78
2022/08/11 11:42:16;;;;;;;1.52;1.27;;;;;37.60;102091.00;;;;5049414;28;20648;-78
2022/08/11 11:44:46;;;;;;;2.95;1.58;;;;;37.60;102093.00;;;;5049266;28;20191;-76
2022/08/11 11:47:14;;;;;;;1.20;1.00;;;;;37.60;102090.00;;;;5048450;28;20191;-76
2022/08/11 11:49:43;;;;;;;1.80;1.52;;;;;37.50;102091.00;;;;5047909;28;20214;-75
2022/08/11 11:52:17;;;;;;;2.10;1.20;;;;;37.50;102097.00;;;;5049207;28;20233;-75
2022/08/11 11:54:49;;;;;;;1.75;1.52;;;;;37.50;102096.00;;;;5049142;28;20854;-76
2022/08/11 12:02:51;;;;;;;3.78;1.50;;;;;37.30;102081.00;;;;5049530;28;20680;-75
2022/08/11 12:05:21;;;;;;;1.95;1.25;;;;;37.30;102064.00;;;;5049335;28;20222;-75
2022/08/11 12:08:13;;;;;;;2.17;1.60;;;;;37.30;102075.00;;;;5048246;28;20210;-76
2022/08/11 12:10:45;;;;;;;4.10;1.58;;;;;37.30;102073.00;;;;5047984;28;20206;-76
2022/08/11 12:16:02;;;;;;;1.50;1.40;;;;;37.30;102063.00;;;;5044419;28;20708;-76
2022/08/11 12:18:32;;;;;;;1.90;1.70;;;;;37.40;102070.00;;;;5048416;28;20278;-75
2022/08/11 12:21:03;;;;;;;3.05;1.73;;;;;37.40;102066.00;;;;5048817;28;20202;-75
2022/08/11 12:29:11;;;;;;;2.83;1.83;;;;;37.40;102050.00;;;;5048934;28;20264;-77
2022/08/11 12:31:39;;;;;;;1.63;1.50;;;;;37.40;102054.00;;;;5047554;28;20226;-77
2022/08/11 12:34:09;;;;;;;1.65;1.50;;;;;37.40;102050.00;;;;5047933;28;20214;-76
2022/08/11 12:36:40;;;;;;;6.07;2.20;;;;;37.40;102045.00;;;;5044364;28;20194;-76
2022/08/11 12:39:11;;;;;;;2.08;1.83;;;;;37.50;102049.00;;;;5032842;28;20206;-77
2022/08/11 12:47:16;;;;;;;2.47;1.33;;;;;37.50;102033.00;;;;5040470;28;20274;-77
2022/08/11 12:52:43;;;;;;;1.85;1.48;;;;;37.60;102039.00;;;;5049906;28;20226;-77
2022/08/11 12:58:14;;;;;;;3.35;1.50;;;;;37.60;102031.00;;;;5048557;28;20241;-76
2022/08/11 12:58:16;;;;;;;1.67;1.50;;;;;37.70;102031.00;;;;5041855;28;20219;-75
2022/08/11 13:06:17;;;;;;;2.67;1.58;;;;;37.70;102026.00;;;;5028328;28;20270;-76
2022/08/11 13:08:47;;;;;;;1.92;1.48;;;;;37.60;102024.00;;;;5048310;28;20196;-77
2022/08/11 13:14:02;;;;;;;1.85;1.65;;;;;37.60;102025.00;;;;5048725;28;20407;-76
2022/08/11 13:17:19;;;;;;;6.55;1.70;;;;;37.60;102018.00;;;;5048021;28;20203;-77
2022/08/11 13:19:20;;;;;;;2.70;1.60;;;;;37.50;102011.00;;;;5048325;28;20199;-77
2022/08/11 13:21:49;;;;;;;3.47;1.60;;;;;37.50;102014.00;;;;5040651;28;20206;-77
2022/08/11 13:24:18;;;;;;;4.15;1.75;;;;;37.50;102012.00;;;;5048595;28;20192;-78
2022/08/11 13:26:47;;;;;;;2.58;1.63;;;;;37.50;102012.00;;;;5048309;28;20214;-78
2022/08/11 13:29:18;;;;;;;1.70;1.60;;;;;37.50;102009.00;;;;5047354;28;20903;-77
2022/08/11 13:31:46;;;;;;;2.85;1.60;;;;;37.40;101999.00;;;;5046658;28;20206;-78
2022/08/11 13:34:16;;;;;;;1.83;1.65;;;;;37.30;101998.00;;;;5048527;28;20680;-77
2022/08/11 13:36:44;;;;;;;3.00;1.60;;;;;37.30;101993.00;;;;5048211;28;20699;-77
2022/08/11 13:39:13;;;;;;;1.90;1.30;;;;;37.30;101990.00;;;;5045404;28;20413;-77
2022/08/11 13:41:46;;;;;;;1.58;1.48;;;;;37.20;101989.00;;;;5048854;28;20684;-77
2022/08/11 13:44:15;;;;;;;1.58;1.48;;;;;37.30;101986.00;;;;5049230;28;20253;-77
2022/08/11 13:46:44;;;;;;;1.70;1.35;;;;;37.40;101985.00;;;;5047443;28;20202;-77
2022/08/11 13:49:15;;;;;;;1.70;1.60;;;;;37.50;101988.00;;;;5047201;28;20202;-77
2022/08/11 13:51:43;;;;;;;2.85;1.80;;;;;37.70;101983.00;;;;5047863;28;20207;-78
2022/08/11 13:54:18;;;;;;;1.63;1.50;;;;;37.80;101985.00;;;;5047114;28;20223;-77
2022/08/11 13:56:48;;;;;;;1.42;1.25;;;;;38.00;101981.00;;;;5036059;28;20733;-78
2022/08/11 13:59:21;;;;;;;1.95;1.67;;;;;38.20;101983.00;;;;5048807;28;20229;-78
2022/08/11 14:01:54;;;;;;;2.47;1.70;;;;;38.50;101978.00;;;;5050212;28;20711;-78
2022/08/11 14:04:27;;;;;;;3.00;1.77;;;;;38.50;101981.00;;;;5046435;28;20199;-77
2022/08/11 14:06:59;;;;;;;2.20;1.52;;;;;38.50;101978.00;;;;5049131;28;20219;-77
2022/08/11 14:09:30;;;;;;;1.60;1.50;;;;;38.40;101966.00;;;;5047955;28;20199;-77
2022/08/11 14:14:53;;;;;;;1.67;1.58;;;;;38.20;101964.00;;;;5046916;28;20203;-78
2022/08/11 14:17:21;;;;;;;2.00;1.52;;;;;38.10;101959.00;;;;5051753;28;20298;-77
2022/08/11 14:19:52;;;;;;;2.90;1.90;;;;;38.10;101961.00;;;;5050785;28;20203;-77
2022/08/11 14:22:20;;;;;;;2.38;1.48;;;;;38.10;101958.00;;;;5048430;28;20199;-76
2022/08/11 14:24:48;;;;;;;1.48;1.38;;;;;38.00;101962.00;;;;5050735;28;20249;-77
2022/08/11 14:27:18;;;;;;;3.67;1.58;;;;;37.90;101963.00;;;;5051606;28;20270;-77
2022/08/11 14:29:46;;;;;;;1.95;1.75;;;;;37.80;101949.00;;;;5050323;28;20195;-77
2022/08/11 14:32:15;;;;;;;1.80;1.70;;;;;37.80;101952.00;;;;5050817;28;20215;-77
2022/08/11 14:34:44;;;;;;;2.05;1.60;;;;;37.70;101946.00;;;;5032965;28;20211;-77
2022/08/11 14:37:14;;;;;;;5.03;1.55;;;;;37.70;101952.00;;;;5048160;28;20198;-77
2022/08/11 14:39:43;;;;;;;2.90;1.67;;;;;37.60;101936.00;;;;5053626;28;20203;-77
2022/08/11 14:48:08;;;;;;;2.90;1.27;;;;;37.40;101948.00;;;;4969441;28;20601;-78
2022/08/11 14:50:36;;;;;;;1.38;1.27;;;;;37.40;101948.00;;;;4969828;28;20198;-77
2022/08/11 14:53:06;;;;;;;1.50;1.40;;;;;37.40;101937.00;;;;4999095;28;20565;-77
2022/08/11 14:58:34;;;;;;;1.33;1.23;;;;;37.40;101939.00;;;;4988140;28;20240;-77
2022/08/11 15:03:05;;;;;;;2.22;1.40;;;;;37.40;101931.00;;;;5021522;28;20594;-77
2022/08/11 15:03:51;;;;;;;1.80;1.38;;;;;37.40;101933.00;;;;5031430;28;20662;-77
2022/08/11 15:06:19;;;;;;;1.30;1.20;;;;;37.50;101928.00;;;;5047309;28;20219;-77
2022/08/11 15:08:55;;;;;;;1.77;1.40;;;;;37.40;101922.00;;;;5050068;28;20203;-77
2022/08/11 15:14:11;;;;;;;2.03;1.40;;;;;37.70;101918.00;;;;5049475;28;20365;-77
2022/08/11 15:19:32;;;;;;;3.35;1.63;;;;;37.80;101913.00;;;;5045384;28;20211;-76
2022/08/11 15:24:44;;;;;;;2.75;1.77;;;;;37.70;101912.00;;;;5048952;28;20683;-77
2022/08/11 15:38:23;;;;;;;1.75;1.20;;;;;37.70;101909.00;;;;5029445;28;20788;-77
2022/08/11 15:46:32;;;;;;;1.30;1.20;;;;;37.60;101894.00;;;;5032862;28;20581;-77
2022/08/11 15:49:04;;;;;;;1.38;1.27;;;;;37.50;101887.00;;;;5049388;28;20199;-77
2022/08/11 15:51:36;;;;;;;6.55;1.55;;;;;37.50;101894.00;;;;5049183;28;20188;-77
2022/08/11 15:54:07;;;;;;;1.90;1.40;;;;;37.50;101890.00;;;;5044041;28;20220;-77
2022/08/11 15:56:39;;;;;;;1.58;1.48;;;;;37.40;101895.00;;;;5048424;28;20206;-77
2022/08/11 16:04:58;;;;;;;1.35;1.15;;;;;37.20;101884.00;;;;5048603;28;20230;-77
2022/08/11 16:07:29;;;;;;;1.42;1.33;;;;;37.10;101887.00;;;;5048649;28;20210;-77
2022/08/11 16:10:00;;;;;;;1.45;1.35;;;;;37.10;101878.00;;;;5048750;28;20206;-78
2022/08/11 16:12:30;;;;;;;1.52;1.30;;;;;37.00;101882.00;;;;5042860;28;20628;-77
2022/08/11 16:17:59;;;;;;;2.38;1.20;;;;;36.90;101878.00;;;;5013092;28;20222;-77
2022/08/11 16:20:30;;;;;;;2.95;1.23;;;;;36.80;101875.00;;;;5049072;28;20218;-76
2022/08/11 16:23:02;;;;;;;2.13;1.40;;;;;36.80;101865.00;;;;5048795;28;20199;-77
2022/08/11 16:25:32;;;;;;;1.58;1.48;;;;;36.70;101870.00;;;;5048010;28;20195;-78
2022/08/11 16:28:06;;;;;;;1.63;1.45;;;;;36.60;101872.00;;;;5043531;28;20196;-78
2022/08/11 16:30:37;;;;;;;1.50;1.40;;;;;36.60;101862.00;;;;5032145;28;20255;-77
2022/08/11 16:33:05;;;;;;;2.45;1.42;;;;;36.60;101877.00;;;;5047533;28;20214;-77
2022/08/11 16:38:37;;;;;;;3.40;1.42;;;;;36.50;101873.00;;;;5045226;28;20280;-77
2022/08/11 16:41:08;;;;;;;1.38;1.27;;;;;36.40;101870.00;;;;5048006;28;20203;-77
2022/08/11 16:49:15;;;;;;;1.83;1.35;;;;;36.30;101856.00;;;;5048479;28;20215;-77
2022/08/11 16:51:44;;;;;;;2.10;1.83;;;;;36.30;101862.00;;;;5047584;28;20191;-78
2022/08/11 16:54:11;;;;;;;2.95;1.02;;;;;36.30;101859.00;;;;5047939;28;20689;-78
2022/08/11 16:56:44;;;;;;;2.33;1.67;;;;;36.20;101860.00;;;;5047871;28;20202;-77
2022/08/11 16:59:15;;;;;;;1.73;1.60;;;;;36.20;101862.00;;;;5048042;28;20219;-77
2022/08/11 17:01:46;;;;;;;2.20;1.58;;;;;36.20;101855.00;;;;5045682;28;20205;-77
2022/08/11 17:13:09;;;;;;;2.50;1.40;;;;;36.10;101851.00;;;;5036478;28;20303;-77
2022/08/11 17:18:42;;;;;;;2.15;1.55;;;;;36.10;101856.00;;;;5045091;28;20227;-77
2022/08/11 17:21:14;;;;;;;1.50;1.40;;;;;36.00;101853.00;;;;5027333;28;20187;-77
2022/08/11 17:23:45;;;;;;;2.75;1.50;;;;;36.00;101855.00;;;;5047282;28;20198;-78
2022/08/11 17:26:16;;;;;;;1.33;1.23;;;;;36.00;101850.00;;;;5047548;28;20226;-77
2022/08/11 17:28:44;;;;;;;1.27;1.17;;;;;36.00;101849.00;;;;5047435;28;20199;-77
2022/08/11 17:36:44;;;;;;;1.50;1.40;;;;;36.00;101846.00;;;;5043139;28;20259;-77
2022/08/11 17:39:17;;;;;;;1.40;1.20;;;;;36.00;101854.00;;;;5047015;28;20203;-77
2022/08/11 17:50:18;;;;;;;1.40;1.30;;;;;35.90;101855.00;;;;5032608;28;20261;-78
2022/08/11 18:01:23;;;;;;;1.42;1.05;;;;;35.70;101855.00;;;;5032968;28;20218;-77
2022/08/11 18:03:51;;;;;;;1.35;1.25;;;;;35.60;101854.00;;;;5050332;28;20704;-77